sensor_id;sensor_type;location;lat;lon;timestamp;pressure;altitude;pressure_sealevel;temperature;humidity
28000;BME280;15328;50.860;10.562;2023-06-14T00:04:12;96448.16;;;17.02;40.41
28000;BME280;15328;50.860;10.562;2023-06-14T00:09:12;96445.97;;;16.99;40.21
28000;BME280;15328;50.860;10.562;2023-06-14T00:14:13;96458.78;;;16.87;40.46
28000;BME280;15328;50.860;10.562;2023-06-14T00:19:13;96447.34;;;16.69;41.05
28000;BME280;15328;50.860;10.562;2023-06-14T00:24:14;96461.75;;;16.63;41.57
28000;BME280;15328;50.860;10.562;2023-06-14T00:29:15;96471.06;;;16.51;41.80
28000;BME280;15328;50.860;10.562;2023-06-14T00:34:15;96460.44;;;16.39;41.91
28000;BME280;15328;50.860;10.562;2023-06-14T00:39:15;96448.78;;;16.23;42.56
28000;BME280;15328;50.860;10.562;2023-06-14T00:44:17;96448.72;;;16.18;43.09
28000;BME280;15328;50.860;10.562;2023-06-14T00:49:18;96440.03;;;16.11;42.95
28000;BME280;15328;50.860;10.562;2023-06-14T00:54:19;96436.00;;;16.08;42.91
28000;BME280;15328;50.860;10.562;2023-06-14T00:59:20;96435.09;;;15.98;43.16
28000;BME280;15328;50.860;10.562;2023-06-14T01:04:20;96428.03;;;15.92;43.45
28000;BME280;15328;50.860;10.562;2023-06-14T01:09:28;96422.81;;;15.80;43.74
28000;BME280;15328;50.860;10.562;2023-06-14T01:14:34;96426.75;;;15.72;44.18
28000;BME280;15328;50.860;10.562;2023-06-14T01:19:34;96432.09;;;15.72;43.70
28000;BME280;15328;50.860;10.562;2023-06-14T01:24:35;96442.13;;;15.60;44.19
28000;BME280;15328;50.860;10.562;2023-06-14T01:29:36;96436.56;;;15.45;44.72
28000;BME280;15328;50.860;10.562;2023-06-14T01:34:37;96433.81;;;15.40;45.00
28000;BME280;15328;50.860;10.562;2023-06-14T01:39:37;96433.50;;;15.36;44.85
28000;BME280;15328;50.860;10.562;2023-06-14T01:44:38;96430.34;;;15.23;45.60
28000;BME280;15328;50.860;10.562;2023-06-14T01:49:39;96439.69;;;15.20;45.58
28000;BME280;15328;50.860;10.562;2023-06-14T01:54:40;96426.84;;;15.22;45.86
28000;BME280;15328;50.860;10.562;2023-06-14T01:59:42;96438.09;;;15.02;46.05
28000;BME280;15328;50.860;10.562;2023-06-14T02:04:42;96440.88;;;14.91;46.16
28000;BME280;15328;50.860;10.562;2023-06-14T02:09:42;96442.09;;;14.83;46.66
28000;BME280;15328;50.860;10.562;2023-06-14T02:14:43;96437.38;;;14.73;47.21
28000;BME280;15328;50.860;10.562;2023-06-14T02:19:44;96440.47;;;14.65;46.64
28000;BME280;15328;50.860;10.562;2023-06-14T02:24:45;96450.03;;;14.61;47.66
28000;BME280;15328;50.860;10.562;2023-06-14T02:29:45;96449.28;;;14.49;48.22
28000;BME280;15328;50.860;10.562;2023-06-14T02:34:46;96449.53;;;14.47;47.77
28000;BME280;15328;50.860;10.562;2023-06-14T02:39:49;96456.06;;;14.40;48.21
28000;BME280;15328;50.860;10.562;2023-06-14T02:44:50;96459.13;;;14.32;48.73
28000;BME280;15328;50.860;10.562;2023-06-14T02:49:51;96456.47;;;14.32;48.68
28000;BME280;15328;50.860;10.562;2023-06-14T02:54:51;96458.56;;;14.30;48.65
28000;BME280;15328;50.860;10.562;2023-06-14T02:59:52;96464.50;;;14.32;48.72
28000;BME280;15328;50.860;10.562;2023-06-14T03:04:52;96473.56;;;14.31;48.97
28000;BME280;15328;50.860;10.562;2023-06-14T03:09:54;96472.75;;;14.30;48.83
28000;BME280;15328;50.860;10.562;2023-06-14T03:14:54;96483.47;;;14.30;48.89
28000;BME280;15328;50.860;10.562;2023-06-14T03:19:57;96479.69;;;14.43;48.79
28000;BME280;15328;50.860;10.562;2023-06-14T03:24:57;96484.44;;;14.41;49.16
28000;BME280;15328;50.860;10.562;2023-06-14T03:29:59;96486.06;;;14.42;48.73
28000;BME280;15328;50.860;10.562;2023-06-14T03:34:59;96487.13;;;14.41;48.66
28000;BME280;15328;50.860;10.562;2023-06-14T03:40:00;96485.56;;;14.28;48.95
28000;BME280;15328;50.860;10.562;2023-06-14T03:45:01;96493.34;;;14.30;48.62
28000;BME280;15328;50.860;10.562;2023-06-14T03:50:02;96502.91;;;14.26;49.01
28000;BME280;15328;50.860;10.562;2023-06-14T03:55:03;96517.19;;;14.31;49.16
28000;BME280;15328;50.860;10.562;2023-06-14T04:00:04;96513.25;;;14.22;49.16
28000;BME280;15328;50.860;10.562;2023-06-14T04:05:06;96524.16;;;14.32;49.62
28000;BME280;15328;50.860;10.562;2023-06-14T04:10:08;96518.25;;;14.30;49.91
28000;BME280;15328;50.860;10.562;2023-06-14T04:15:09;96524.94;;;14.44;49.25
28000;BME280;15328;50.860;10.562;2023-06-14T04:20:10;96533.56;;;14.46;49.05
28000;BME280;15328;50.860;10.562;2023-06-14T04:25:11;96540.56;;;14.36;49.58
28000;BME280;15328;50.860;10.562;2023-06-14T04:30:12;96542.44;;;14.23;49.83
28000;BME280;15328;50.860;10.562;2023-06-14T04:35:13;96533.19;;;14.14;49.57
28000;BME280;15328;50.860;10.562;2023-06-14T04:40:14;96545.75;;;14.14;50.12
28000;BME280;15328;50.860;10.562;2023-06-14T04:45:15;96548.66;;;14.12;50.04
28000;BME280;15328;50.860;10.562;2023-06-14T04:50:17;96541.59;;;14.06;50.09
28000;BME280;15328;50.860;10.562;2023-06-14T04:55:17;96550.66;;;14.05;50.47
28000;BME280;15328;50.860;10.562;2023-06-14T05:00:20;96546.59;;;13.91;51.04
28000;BME280;15328;50.860;10.562;2023-06-14T05:05:20;96538.81;;;14.01;51.39
28000;BME280;15328;50.860;10.562;2023-06-14T05:10:21;96537.13;;;14.12;51.53
28000;BME280;15328;50.860;10.562;2023-06-14T05:15:21;96545.06;;;14.07;51.07
28000;BME280;15328;50.860;10.562;2023-06-14T05:20:25;96541.91;;;14.10;51.44
28000;BME280;15328;50.860;10.562;2023-06-14T05:25:26;96548.03;;;14.22;51.42
28000;BME280;15328;50.860;10.562;2023-06-14T05:30:28;96553.13;;;14.35;51.29
28000;BME280;15328;50.860;10.562;2023-06-14T05:35:30;96562.75;;;14.48;50.92
28000;BME280;15328;50.860;10.562;2023-06-14T05:40:31;96571.66;;;14.65;51.18
28000;BME280;15328;50.860;10.562;2023-06-14T05:45:31;96571.44;;;14.83;50.13
28000;BME280;15328;50.860;10.562;2023-06-14T05:50:31;96568.78;;;15.00;49.54
28000;BME280;15328;50.860;10.562;2023-06-14T05:55:32;96563.59;;;15.10;49.61
28000;BME280;15328;50.860;10.562;2023-06-14T06:00:32;96578.22;;;15.20;49.77
28000;BME280;15328;50.860;10.562;2023-06-14T06:05:32;96569.53;;;15.12;49.73
28000;BME280;15328;50.860;10.562;2023-06-14T06:10:33;96569.13;;;15.21;49.66
28000;BME280;15328;50.860;10.562;2023-06-14T06:15:33;96571.47;;;15.34;49.72
28000;BME280;15328;50.860;10.562;2023-06-14T06:20:33;96563.78;;;15.37;49.71
28000;BME280;15328;50.860;10.562;2023-06-14T06:25:34;96575.63;;;15.41;50.01
28000;BME280;15328;50.860;10.562;2023-06-14T06:30:34;96577.41;;;15.36;50.04
28000;BME280;15328;50.860;10.562;2023-06-14T06:35:36;96585.84;;;15.44;50.02
28000;BME280;15328;50.860;10.562;2023-06-14T06:40:37;96586.03;;;15.71;50.19
28000;BME280;15328;50.860;10.562;2023-06-14T06:45:37;96576.06;;;15.89;49.44
28000;BME280;15328;50.860;10.562;2023-06-14T06:50:38;96589.94;;;16.02;49.53
28000;BME280;15328;50.860;10.562;2023-06-14T06:55:38;96595.31;;;16.24;49.83
28000;BME280;15328;50.860;10.562;2023-06-14T07:00:38;96597.81;;;16.31;49.31
28000;BME280;15328;50.860;10.562;2023-06-14T07:05:39;96609.47;;;16.42;48.86
28000;BME280;15328;50.860;10.562;2023-06-14T07:10:39;96610.28;;;16.64;48.48
28000;BME280;15328;50.860;10.562;2023-06-14T07:15:40;96614.59;;;16.87;47.86
28000;BME280;15328;50.860;10.562;2023-06-14T07:20:40;96625.00;;;17.05;48.03
28000;BME280;15328;50.860;10.562;2023-06-14T07:25:41;96628.78;;;17.09;47.46
28000;BME280;15328;50.860;10.562;2023-06-14T07:30:42;96628.22;;;17.34;47.35
28000;BME280;15328;50.860;10.562;2023-06-14T07:35:42;96628.69;;;17.58;46.96
28000;BME280;15328;50.860;10.562;2023-06-14T07:40:42;96624.25;;;17.74;45.98
28000;BME280;15328;50.860;10.562;2023-06-14T07:45:43;96631.63;;;17.88;46.64
28000;BME280;15328;50.860;10.562;2023-06-14T07:50:43;96631.69;;;17.99;45.03
28000;BME280;15328;50.860;10.562;2023-06-14T07:55:43;96641.19;;;18.11;44.96
28000;BME280;15328;50.860;10.562;2023-06-14T08:00:44;96633.53;;;18.40;44.70
28000;BME280;15328;50.860;10.562;2023-06-14T08:05:44;96636.97;;;18.31;44.18
28000;BME280;15328;50.860;10.562;2023-06-14T08:10:44;96641.09;;;18.43;44.66
28000;BME280;15328;50.860;10.562;2023-06-14T08:15:45;96645.59;;;18.33;43.53
28000;BME280;15328;50.860;10.562;2023-06-14T08:20:45;96641.88;;;18.39;43.96
28000;BME280;15328;50.860;10.562;2023-06-14T08:25:46;96654.56;;;18.43;44.20
28000;BME280;15328;50.860;10.562;2023-06-14T08:30:46;96649.03;;;18.65;44.23
28000;BME280;15328;50.860;10.562;2023-06-14T08:35:47;96647.25;;;19.11;43.68
28000;BME280;15328;50.860;10.562;2023-06-14T08:40:50;96645.94;;;19.34;42.73
28000;BME280;15328;50.860;10.562;2023-06-14T08:45:57;96645.19;;;19.59;42.39
28000;BME280;15328;50.860;10.562;2023-06-14T08:50:59;96640.06;;;19.88;41.11
28000;BME280;15328;50.860;10.562;2023-06-14T08:56:05;96644.63;;;19.93;40.54
28000;BME280;15328;50.860;10.562;2023-06-14T09:01:05;96640.31;;;20.02;39.72
28000;BME280;15328;50.860;10.562;2023-06-14T09:06:08;96645.41;;;20.19;39.80
28000;BME280;15328;50.860;10.562;2023-06-14T09:11:15;96649.72;;;20.30;38.45
28000;BME280;15328;50.860;10.562;2023-06-14T09:16:16;96655.91;;;20.41;38.96
28000;BME280;15328;50.860;10.562;2023-06-14T09:21:17;96665.63;;;20.42;38.36
28000;BME280;15328;50.860;10.562;2023-06-14T09:26:18;96664.75;;;20.61;38.57
28000;BME280;15328;50.860;10.562;2023-06-14T09:31:23;96662.72;;;20.97;37.77
28000;BME280;15328;50.860;10.562;2023-06-14T09:36:24;96663.69;;;21.17;36.51
28000;BME280;15328;50.860;10.562;2023-06-14T09:46:34;96669.34;;;21.99;35.23
28000;BME280;15328;50.860;10.562;2023-06-14T09:51:37;96667.00;;;21.87;34.58
28000;BME280;15328;50.860;10.562;2023-06-14T09:56:44;96657.88;;;22.12;34.12
28000;BME280;15328;50.860;10.562;2023-06-14T10:01:45;96663.16;;;22.51;33.66
28000;BME280;15328;50.860;10.562;2023-06-14T10:06:47;96668.00;;;23.02;34.02
28000;BME280;15328;50.860;10.562;2023-06-14T10:11:47;96669.44;;;23.56;31.37
28000;BME280;15328;50.860;10.562;2023-06-14T10:17:07;96678.34;;;24.08;30.17
28000;BME280;15328;50.860;10.562;2023-06-14T10:22:22;96679.41;;;24.12;30.64
28000;BME280;15328;50.860;10.562;2023-06-14T10:27:25;96678.78;;;24.15;29.86
28000;BME280;15328;50.860;10.562;2023-06-14T10:32:25;96669.25;;;23.85;30.52
28000;BME280;15328;50.860;10.562;2023-06-14T10:37:28;96664.53;;;23.90;30.06
28000;BME280;15328;50.860;10.562;2023-06-14T10:42:31;96656.19;;;23.49;29.78
28000;BME280;15328;50.860;10.562;2023-06-14T10:47:35;96661.41;;;23.83;30.65
28000;BME280;15328;50.860;10.562;2023-06-14T10:52:42;96660.09;;;24.27;29.42
28000;BME280;15328;50.860;10.562;2023-06-14T10:57:46;96658.94;;;23.82;29.62
28000;BME280;15328;50.860;10.562;2023-06-14T11:13:07;96654.00;;;25.04;28.54
28000;BME280;15328;50.860;10.562;2023-06-14T11:18:08;96660.81;;;25.15;28.26
28000;BME280;15328;50.860;10.562;2023-06-14T11:23:11;96656.53;;;25.00;28.66
28000;BME280;15328;50.860;10.562;2023-06-14T11:28:12;96646.22;;;25.47;27.94
28000;BME280;15328;50.860;10.562;2023-06-14T11:33:17;96647.81;;;26.06;27.24
28000;BME280;15328;50.860;10.562;2023-06-14T11:38:18;96654.72;;;26.35;25.93
28000;BME280;15328;50.860;10.562;2023-06-14T11:43:19;96647.25;;;26.49;25.83
28000;BME280;15328;50.860;10.562;2023-06-14T11:48:20;96653.44;;;26.72;25.16
28000;BME280;15328;50.860;10.562;2023-06-14T11:53:20;96653.94;;;26.12;25.79
28000;BME280;15328;50.860;10.562;2023-06-14T11:58:21;96641.69;;;26.32;25.98
28000;BME280;15328;50.860;10.562;2023-06-14T12:03:25;96639.22;;;25.91;25.31
28000;BME280;15328;50.860;10.562;2023-06-14T12:08:32;96645.97;;;25.93;25.64
28000;BME280;15328;50.860;10.562;2023-06-14T12:13:42;96634.91;;;25.98;25.48
28000;BME280;15328;50.860;10.562;2023-06-14T12:18:43;96645.97;;;26.24;23.56
28000;BME280;15328;50.860;10.562;2023-06-14T12:23:48;96636.50;;;26.22;24.71
28000;BME280;15328;50.860;10.562;2023-06-14T12:28:52;96641.56;;;25.83;24.48
28000;BME280;15328;50.860;10.562;2023-06-14T12:33:52;96636.16;;;26.14;24.64
28000;BME280;15328;50.860;10.562;2023-06-14T12:38:52;96636.31;;;25.87;23.50
28000;BME280;15328;50.860;10.562;2023-06-14T12:43:55;96628.13;;;26.09;23.31
28000;BME280;15328;50.860;10.562;2023-06-14T12:48:58;96634.13;;;25.98;24.67
28000;BME280;15328;50.860;10.562;2023-06-14T12:53:58;96623.72;;;25.55;24.90
28000;BME280;15328;50.860;10.562;2023-06-14T12:58:59;96621.00;;;25.55;24.76
28000;BME280;15328;50.860;10.562;2023-06-14T13:03:59;96633.03;;;25.76;26.11
28000;BME280;15328;50.860;10.562;2023-06-14T13:09:00;96635.25;;;25.38;24.79
28000;BME280;15328;50.860;10.562;2023-06-14T13:14:01;96649.13;;;25.28;25.83
28000;BME280;15328;50.860;10.562;2023-06-14T13:19:01;96644.38;;;25.56;24.98
28000;BME280;15328;50.860;10.562;2023-06-14T13:24:02;96647.28;;;25.60;25.08
28000;BME280;15328;50.860;10.562;2023-06-14T13:29:03;96639.44;;;25.58;25.61
28000;BME280;15328;50.860;10.562;2023-06-14T13:34:03;96649.31;;;25.68;25.84
28000;BME280;15328;50.860;10.562;2023-06-14T13:39:04;96649.06;;;25.78;25.00
28000;BME280;15328;50.860;10.562;2023-06-14T13:44:05;96649.38;;;25.40;25.40
28000;BME280;15328;50.860;10.562;2023-06-14T13:49:05;96636.66;;;25.13;25.40
28000;BME280;15328;50.860;10.562;2023-06-14T13:54:06;96640.22;;;25.00;25.94
28000;BME280;15328;50.860;10.562;2023-06-14T13:59:06;96633.06;;;24.77;25.78
28000;BME280;15328;50.860;10.562;2023-06-14T14:04:07;96635.75;;;24.63;25.66
28000;BME280;15328;50.860;10.562;2023-06-14T14:09:08;96635.38;;;24.42;25.89
28000;BME280;15328;50.860;10.562;2023-06-14T14:14:09;96645.38;;;24.14;26.86
28000;BME280;15328;50.860;10.562;2023-06-14T14:19:10;96629.53;;;23.89;26.78
28000;BME280;15328;50.860;10.562;2023-06-14T14:24:11;96632.09;;;23.80;27.10
28000;BME280;15328;50.860;10.562;2023-06-14T14:29:11;96634.78;;;23.99;28.04
28000;BME280;15328;50.860;10.562;2023-06-14T14:34:12;96636.41;;;23.81;27.66
28000;BME280;15328;50.860;10.562;2023-06-14T14:39:12;96640.72;;;23.50;28.47
28000;BME280;15328;50.860;10.562;2023-06-14T14:44:12;96640.88;;;23.21;28.93
28000;BME280;15328;50.860;10.562;2023-06-14T14:49:13;96642.25;;;23.18;28.89
28000;BME280;15328;50.860;10.562;2023-06-14T14:54:13;96646.50;;;23.24;28.76
28000;BME280;15328;50.860;10.562;2023-06-14T14:59:14;96650.50;;;23.32;29.38
28000;BME280;15328;50.860;10.562;2023-06-14T15:04:14;96637.66;;;23.37;28.76
28000;BME280;15328;50.860;10.562;2023-06-14T15:09:14;96646.47;;;23.29;29.03
28000;BME280;15328;50.860;10.562;2023-06-14T15:14:15;96640.34;;;23.19;28.74
28000;BME280;15328;50.860;10.562;2023-06-14T15:19:17;96641.16;;;23.19;29.21
28000;BME280;15328;50.860;10.562;2023-06-14T15:24:18;96639.84;;;23.17;28.48
28000;BME280;15328;50.860;10.562;2023-06-14T15:29:18;96636.00;;;22.99;28.41
28000;BME280;15328;50.860;10.562;2023-06-14T15:34:18;96641.50;;;22.94;28.62
28000;BME280;15328;50.860;10.562;2023-06-14T15:39:19;96636.22;;;22.84;28.98
28000;BME280;15328;50.860;10.562;2023-06-14T15:44:19;96657.66;;;22.80;29.27
28000;BME280;15328;50.860;10.562;2023-06-14T15:49:20;96639.50;;;22.57;29.60
28000;BME280;15328;50.860;10.562;2023-06-14T15:54:20;96642.59;;;22.45;30.13
28000;BME280;15328;50.860;10.562;2023-06-14T15:59:21;96635.88;;;22.42;29.90
28000;BME280;15328;50.860;10.562;2023-06-14T16:04:30;96638.00;;;22.45;29.63
28000;BME280;15328;50.860;10.562;2023-06-14T16:09:30;96636.94;;;22.46;29.77
28000;BME280;15328;50.860;10.562;2023-06-14T16:14:31;96628.22;;;22.49;29.77
28000;BME280;15328;50.860;10.562;2023-06-14T16:19:31;96626.84;;;22.52;29.71
28000;BME280;15328;50.860;10.562;2023-06-14T16:24:31;96630.00;;;22.35;30.06
28000;BME280;15328;50.860;10.562;2023-06-14T16:29:32;96633.63;;;22.26;30.20
28000;BME280;15328;50.860;10.562;2023-06-14T16:34:32;96629.06;;;22.21;29.76
28000;BME280;15328;50.860;10.562;2023-06-14T16:39:33;96623.97;;;22.14;29.89
28000;BME280;15328;50.860;10.562;2023-06-14T16:44:33;96640.56;;;22.08;30.64
28000;BME280;15328;50.860;10.562;2023-06-14T16:49:34;96652.53;;;22.02;32.75
28000;BME280;15328;50.860;10.562;2023-06-14T16:54:35;96656.91;;;21.98;33.66
28000;BME280;15328;50.860;10.562;2023-06-14T16:59:35;96661.34;;;21.83;34.17
28000;BME280;15328;50.860;10.562;2023-06-14T17:04:35;96654.06;;;21.79;34.14
28000;BME280;15328;50.860;10.562;2023-06-14T17:09:36;96653.94;;;21.65;34.94
28000;BME280;15328;50.860;10.562;2023-06-14T17:14:36;96663.47;;;21.52;35.48
28000;BME280;15328;50.860;10.562;2023-06-14T17:19:36;96669.38;;;21.65;35.74
28000;BME280;15328;50.860;10.562;2023-06-14T17:24:37;96672.06;;;21.65;35.65
28000;BME280;15328;50.860;10.562;2023-06-14T17:29:37;96667.75;;;21.58;35.64
28000;BME280;15328;50.860;10.562;2023-06-14T17:34:38;96665.00;;;21.64;35.73
28000;BME280;15328;50.860;10.562;2023-06-14T17:39:38;96663.44;;;21.57;35.75
28000;BME280;15328;50.860;10.562;2023-06-14T17:44:41;96668.03;;;21.57;35.90
28000;BME280;15328;50.860;10.562;2023-06-14T17:49:41;96672.59;;;21.62;36.15
28000;BME280;15328;50.860;10.562;2023-06-14T17:54:41;96680.16;;;21.70;35.71
28000;BME280;15328;50.860;10.562;2023-06-14T17:59:42;96678.53;;;21.64;35.62
28000;BME280;15328;50.860;10.562;2023-06-14T18:04:43;96682.19;;;21.49;35.83
28000;BME280;15328;50.860;10.562;2023-06-14T18:09:44;96683.59;;;21.36;36.18
28000;BME280;15328;50.860;10.562;2023-06-14T18:14:45;96686.09;;;21.22;35.96
28000;BME280;15328;50.860;10.562;2023-06-14T18:19:45;96695.09;;;21.13;36.38
28000;BME280;15328;50.860;10.562;2023-06-14T18:24:45;96697.00;;;21.07;36.70
28000;BME280;15328;50.860;10.562;2023-06-14T18:29:46;96698.16;;;20.91;37.35
28000;BME280;15328;50.860;10.562;2023-06-14T18:34:47;96685.47;;;20.86;37.33
28000;BME280;15328;50.860;10.562;2023-06-14T18:39:49;96703.59;;;20.81;37.24
28000;BME280;15328;50.860;10.562;2023-06-14T18:44:49;96700.97;;;20.60;37.24
28000;BME280;15328;50.860;10.562;2023-06-14T18:49:51;96696.13;;;20.52;37.68
28000;BME280;15328;50.860;10.562;2023-06-14T18:54:51;96706.13;;;20.47;37.75
28000;BME280;15328;50.860;10.562;2023-06-14T18:59:51;96703.97;;;20.44;37.98
28000;BME280;15328;50.860;10.562;2023-06-14T19:04:52;96702.06;;;20.39;38.06
28000;BME280;15328;50.860;10.562;2023-06-14T19:09:52;96703.44;;;20.31;38.58
28000;BME280;15328;50.860;10.562;2023-06-14T19:14:52;96704.00;;;20.18;38.99
28000;BME280;15328;50.860;10.562;2023-06-14T19:19:53;96707.81;;;20.07;39.21
28000;BME280;15328;50.860;10.562;2023-06-14T19:24:53;96710.22;;;19.93;39.71
28000;BME280;15328;50.860;10.562;2023-06-14T19:29:53;96719.94;;;19.79;40.02
28000;BME280;15328;50.860;10.562;2023-06-14T19:34:53;96705.91;;;19.62;40.42
28000;BME280;15328;50.860;10.562;2023-06-14T19:39:54;96720.97;;;19.53;40.94
28000;BME280;15328;50.860;10.562;2023-06-14T19:44:54;96727.72;;;19.50;40.82
28000;BME280;15328;50.860;10.562;2023-06-14T19:49:55;96739.53;;;19.39;41.06
28000;BME280;15328;50.860;10.562;2023-06-14T19:54:57;96729.56;;;19.29;41.55
28000;BME280;15328;50.860;10.562;2023-06-14T19:59:57;96735.75;;;19.20;41.77
28000;BME280;15328;50.860;10.562;2023-06-14T20:04:58;96740.00;;;19.15;41.83
28000;BME280;15328;50.860;10.562;2023-06-14T20:09:58;96745.91;;;19.07;42.18
28000;BME280;15328;50.860;10.562;2023-06-14T20:14:58;96742.66;;;18.95;42.70
28000;BME280;15328;50.860;10.562;2023-06-14T20:19:59;96743.66;;;18.79;42.97
28000;BME280;15328;50.860;10.562;2023-06-14T20:24:59;96729.88;;;18.70;43.27
28000;BME280;15328;50.860;10.562;2023-06-14T20:30:00;96745.66;;;18.57;43.52
28000;BME280;15328;50.860;10.562;2023-06-14T20:35:04;96742.28;;;18.34;44.43
28000;BME280;15328;50.860;10.562;2023-06-14T20:40:04;96745.16;;;18.22;44.56
28000;BME280;15328;50.860;10.562;2023-06-14T20:45:08;96740.69;;;18.01;45.05
28000;BME280;15328;50.860;10.562;2023-06-14T20:50:09;96749.75;;;17.90;45.79
28000;BME280;15328;50.860;10.562;2023-06-14T20:55:11;96738.97;;;17.85;46.04
28000;BME280;15328;50.860;10.562;2023-06-14T21:00:12;96736.59;;;17.67;46.19
28000;BME280;15328;50.860;10.562;2023-06-14T21:05:13;96743.00;;;17.60;46.19
28000;BME280;15328;50.860;10.562;2023-06-14T21:10:13;96751.59;;;17.57;46.55
28000;BME280;15328;50.860;10.562;2023-06-14T21:15:14;96744.50;;;17.51;46.44
28000;BME280;15328;50.860;10.562;2023-06-14T21:20:14;96743.81;;;17.34;47.23
28000;BME280;15328;50.860;10.562;2023-06-14T21:25:15;96743.22;;;17.27;47.40
28000;BME280;15328;50.860;10.562;2023-06-14T21:30:15;96737.47;;;17.18;47.86
28000;BME280;15328;50.860;10.562;2023-06-14T21:35:16;96747.28;;;17.08;47.99
28000;BME280;15328;50.860;10.562;2023-06-14T21:40:17;96745.41;;;17.08;48.39
28000;BME280;15328;50.860;10.562;2023-06-14T21:45:18;96746.16;;;17.04;48.16
28000;BME280;15328;50.860;10.562;2023-06-14T21:50:18;96747.97;;;16.98;48.12
28000;BME280;15328;50.860;10.562;2023-06-14T21:55:18;96746.28;;;16.92;48.46
28000;BME280;15328;50.860;10.562;2023-06-14T22:00:23;96753.41;;;16.81;48.69
28000;BME280;15328;50.860;10.562;2023-06-14T22:05:24;96750.09;;;16.74;48.84
28000;BME280;15328;50.860;10.562;2023-06-14T22:10:25;96750.50;;;16.66;49.30
28000;BME280;15328;50.860;10.562;2023-06-14T22:15:26;96747.66;;;16.56;49.45
28000;BME280;15328;50.860;10.562;2023-06-14T22:20:27;96746.78;;;16.50;49.84
28000;BME280;15328;50.860;10.562;2023-06-14T22:25:30;96744.38;;;16.49;49.67
28000;BME280;15328;50.860;10.562;2023-06-14T22:30:30;96752.00;;;16.40;49.87
28000;BME280;15328;50.860;10.562;2023-06-14T22:35:32;96750.13;;;16.41;49.81
28000;BME280;15328;50.860;10.562;2023-06-14T22:40:33;96750.56;;;16.32;49.96
28000;BME280;15328;50.860;10.562;2023-06-14T22:45:33;96742.44;;;16.27;50.02
28000;BME280;15328;50.860;10.562;2023-06-14T22:50:36;96734.38;;;16.27;50.16
28000;BME280;15328;50.860;10.562;2023-06-14T22:55:37;96732.28;;;16.13;50.14
28000;BME280;15328;50.860;10.562;2023-06-14T23:00:37;96749.84;;;16.03;50.77
28000;BME280;15328;50.860;10.562;2023-06-14T23:05:39;96742.78;;;15.97;51.01
28000;BME280;15328;50.860;10.562;2023-06-14T23:10:41;96745.16;;;15.94;50.89
28000;BME280;15328;50.860;10.562;2023-06-14T23:15:42;96738.16;;;15.93;51.11
28000;BME280;15328;50.860;10.562;2023-06-14T23:20:42;96742.03;;;15.85;51.67
28000;BME280;15328;50.860;10.562;2023-06-14T23:25:43;96731.31;;;15.85;51.31
28000;BME280;15328;50.860;10.562;2023-06-14T23:30:43;96731.81;;;15.82;51.37
28000;BME280;15328;50.860;10.562;2023-06-14T23:35:45;96739.13;;;15.70;52.06
28000;BME280;15328;50.860;10.562;2023-06-14T23:40:45;96732.44;;;15.72;52.14
28000;BME280;15328;50.860;10.562;2023-06-14T23:45:49;96739.03;;;15.65;52.10
28000;BME280;15328;50.860;10.562;2023-06-14T23:50:54;96738.78;;;15.66;51.96
28000;BME280;15328;50.860;10.562;2023-06-14T23:55:54;96744.81;;;15.73;51.89
